createdAt,value
2023-01-25T00:22:18.862Z,99.90
2023-01-25T00:24:47.539Z,99.90
2023-01-25T00:27:16.107Z,99.90
2023-01-25T00:29:44.644Z,99.90
2023-01-25T00:32:42.197Z,99.90
2023-01-25T00:35:14.143Z,99.90
2023-01-25T00:37:50.074Z,99.90
2023-01-25T00:40:20.039Z,99.90
2023-01-25T00:42:48.587Z,99.90
2023-01-25T00:45:17.640Z,99.90
2023-01-25T00:47:46.305Z,99.90
2023-01-25T00:50:14.874Z,99.90
2023-01-25T00:52:44.796Z,99.90
2023-01-25T00:55:13.363Z,99.90
2023-01-25T00:57:41.931Z,99.90
2023-01-25T01:00:11.830Z,99.90
2023-01-25T01:02:40.717Z,99.90
2023-01-25T01:05:10.473Z,99.90
2023-01-25T01:07:39.909Z,99.90
2023-01-25T01:10:11.092Z,99.90
2023-01-25T01:12:40.982Z,99.90
2023-01-25T01:15:10.812Z,83.50
2023-01-25T01:17:39.514Z,61.20
2023-01-25T01:20:09.267Z,33.40
2023-01-25T01:22:37.840Z,21.20
2023-01-25T01:25:07.603Z,9.60
2023-01-25T01:27:37.830Z,1.00
2023-01-25T01:30:07.440Z,1.00
2023-01-25T01:32:36.199Z,1.00
2023-01-25T01:35:05.132Z,1.00
2023-01-25T01:37:33.875Z,1.00
2023-01-25T01:40:02.584Z,1.00
2023-01-25T01:42:32.431Z,1.00
2023-01-25T01:45:02.404Z,1.00
2023-01-25T01:47:39.457Z,1.00
2023-01-25T01:50:20.587Z,1.00
2023-01-25T01:52:49.845Z,1.00
2023-01-25T01:55:24.251Z,1.00
2023-01-25T01:57:58.162Z,1.00
2023-01-25T02:16:23.930Z,1.00
2023-01-25T02:18:53.542Z,1.00
2023-01-25T02:21:23.452Z,1.00
2023-01-25T02:23:56.707Z,99.90
2023-01-25T02:26:26.831Z,99.90
2023-01-25T02:28:59.590Z,99.90
2023-01-25T02:31:28.468Z,99.90
2023-01-25T02:33:57.133Z,99.90
2023-01-25T02:36:28.336Z,99.90
2023-01-25T02:39:01.058Z,99.90
2023-01-25T02:41:35.257Z,99.90
2023-01-25T02:47:07.149Z,1.00
2023-01-25T02:49:37.013Z,1.00
2023-01-25T02:52:06.383Z,1.00
2023-01-25T02:54:34.979Z,1.00
2023-01-25T02:57:08.588Z,1.00
2023-01-25T03:02:47.158Z,99.90
2023-01-25T03:05:15.828Z,99.90
2023-01-25T03:07:44.427Z,99.90
2023-01-25T03:10:13.077Z,99.90
2023-01-25T03:12:43.098Z,11.70
2023-01-25T03:15:12.011Z,1.00
2023-01-25T03:17:40.729Z,1.00
2023-01-25T03:20:11.716Z,1.00
2023-01-25T03:22:41.936Z,1.00
2023-01-25T03:25:11.304Z,1.00
2023-01-25T03:27:48.068Z,1.00
2023-01-25T03:30:16.988Z,99.90
2023-01-25T03:32:45.653Z,99.90
2023-01-25T03:35:19.872Z,1.00
2023-01-25T03:37:49.452Z,1.00
2023-01-25T03:40:18.378Z,1.00
2023-01-25T03:43:05.598Z,1.00
2023-01-25T03:45:34.229Z,1.00
2023-01-25T03:48:03.368Z,1.00
2023-01-25T03:50:32.284Z,1.00
2023-01-25T03:53:03.698Z,1.00
2023-01-25T03:55:33.815Z,1.00
2023-01-25T04:29:43.947Z,1.00
2023-01-25T04:32:18.652Z,1.00
2023-01-25T04:34:47.548Z,93.50
2023-01-25T04:37:19.387Z,99.90
2023-01-25T04:39:58.174Z,99.90
2023-01-25T04:42:28.084Z,99.90
2023-01-25T04:44:59.838Z,99.90
2023-01-25T04:47:28.991Z,1.00
2023-01-25T04:49:57.773Z,1.00
2023-01-25T04:52:31.567Z,1.00
2023-01-25T04:55:00.211Z,1.00
2023-01-25T04:57:31.855Z,1.00
2023-01-25T05:00:02.036Z,1.00
2023-01-25T05:02:33.385Z,1.00
2023-01-25T05:05:02.255Z,1.00
2023-01-25T05:07:32.339Z,1.00
2023-01-25T05:10:01.642Z,22.00
2023-01-25T05:12:31.839Z,99.90
2023-01-25T05:15:06.404Z,99.90
2023-01-25T05:17:35.379Z,99.90
2023-01-25T05:20:04.655Z,99.90
2023-01-25T05:22:33.573Z,99.90
2023-01-25T05:25:03.050Z,1.00
2023-01-25T05:27:30.784Z,1.00
2023-01-25T05:29:59.512Z,1.00
2023-01-25T05:32:51.323Z,1.00
2023-01-25T05:35:19.963Z,1.00
2023-01-25T05:37:50.940Z,1.00
2023-01-25T05:40:24.756Z,1.00
2023-01-25T05:42:57.201Z,1.00
2023-01-25T05:45:27.638Z,1.00
2023-01-25T05:48:00.127Z,1.00
2023-01-25T05:50:29.095Z,1.00
2023-01-25T05:53:07.573Z,1.00
2023-01-25T05:55:37.866Z,1.00
2023-01-25T05:58:10.901Z,1.00
2023-01-25T06:00:40.596Z,18.20
2023-01-25T06:03:11.096Z,27.50
2023-01-25T06:05:41.397Z,41.30
2023-01-25T06:08:09.978Z,67.10
2023-01-25T06:11:07.289Z,91.50
2023-01-25T06:13:36.430Z,99.90
2023-01-25T06:16:06.828Z,99.90
2023-01-25T06:18:46.283Z,99.90
2023-01-25T06:21:38.095Z,99.90
2023-01-25T06:24:07.302Z,99.90
2023-01-25T06:26:36.090Z,99.90
2023-01-25T06:29:06.680Z,99.90
2023-01-25T06:31:35.956Z,99.90
2023-01-25T06:34:06.595Z,99.90
2023-01-25T06:36:35.861Z,99.90
2023-01-25T06:39:04.873Z,99.90
2023-01-25T06:41:33.814Z,99.90
2023-01-25T06:44:05.070Z,99.90
2023-01-25T06:46:34.273Z,99.90
2023-01-25T06:49:02.984Z,99.90
2023-01-25T06:51:33.702Z,99.90
2023-01-25T06:54:04.580Z,99.90
2023-01-25T06:56:33.845Z,99.90
2023-01-25T06:59:02.505Z,99.90
2023-01-25T07:01:31.173Z,99.90
2023-01-25T07:04:00.606Z,99.90
2023-01-25T07:06:35.211Z,99.90
2023-01-25T07:09:05.506Z,99.90
2023-01-25T07:11:34.254Z,99.90
2023-01-25T07:14:03.059Z,99.90
2023-01-25T07:16:36.879Z,99.90
2023-01-25T07:19:06.243Z,99.90
2023-01-25T07:21:36.261Z,99.90
2023-01-25T07:24:06.205Z,99.90
2023-01-25T07:26:34.915Z,99.90
2023-01-25T07:29:03.667Z,99.90
2023-01-25T07:31:33.221Z,99.90
2023-01-25T07:34:01.775Z,99.90
2023-01-25T07:36:30.383Z,99.90
2023-01-25T07:39:00.907Z,99.90
2023-01-25T07:41:29.500Z,99.90
2023-01-25T07:43:58.057Z,99.90
2023-01-25T07:46:42.244Z,99.90
2023-01-25T07:49:10.825Z,99.90
2023-01-25T07:51:39.467Z,99.90
2023-01-25T07:54:12.334Z,99.90
2023-01-25T07:56:41.050Z,99.90
2023-01-25T07:59:11.346Z,99.90
2023-01-25T08:01:41.358Z,99.90
2023-01-25T08:04:10.630Z,99.90
2023-01-25T08:06:39.953Z,99.90
2023-01-25T08:09:13.205Z,99.90
2023-01-25T08:11:43.036Z,99.90
2023-01-25T08:14:11.641Z,99.90
2023-01-25T08:29:21.156Z,18.10
2023-01-25T08:31:49.859Z,1.00
2023-01-25T08:34:18.471Z,1.00
2023-01-25T08:36:47.070Z,1.00
2023-01-25T08:39:15.682Z,1.00
2023-01-25T08:41:45.689Z,1.00
2023-01-25T08:59:01.084Z,1.00
2023-01-25T09:01:29.803Z,1.00
2023-01-25T09:03:58.584Z,1.00
2023-01-25T09:06:27.167Z,99.90
2023-01-25T09:08:56.136Z,1.00
2023-01-25T09:11:26.197Z,1.00
2023-01-25T09:14:06.150Z,99.90
2023-01-25T09:16:36.345Z,1.00
2023-01-25T09:19:06.855Z,1.00
2023-01-25T09:21:37.254Z,99.90
2023-01-25T09:24:07.690Z,1.00
2023-01-25T09:26:38.286Z,1.00
2023-01-25T09:29:08.209Z,1.00
2023-01-25T09:31:41.059Z,1.00
2023-01-25T09:34:39.055Z,99.90
2023-01-25T09:37:07.655Z,99.90
2023-01-25T09:39:36.316Z,99.90
2023-01-25T09:42:39.311Z,1.00
2023-01-25T09:45:26.924Z,1.00
2023-01-25T09:48:05.472Z,1.00
2023-01-25T09:50:38.407Z,1.00
2023-01-25T09:53:29.234Z,1.00
2023-01-25T09:56:00.698Z,99.90
2023-01-25T09:58:36.960Z,99.90
2023-01-25T10:01:38.664Z,99.90
2023-01-25T10:04:16.029Z,99.90
2023-01-25T10:07:02.733Z,99.90
2023-01-25T10:09:40.458Z,99.90
2023-01-25T10:12:17.194Z,99.90
2023-01-25T10:14:45.939Z,99.90
2023-01-25T10:17:21.987Z,99.90
2023-01-25T10:20:08.941Z,91.20
2023-01-25T10:22:44.840Z,99.90
2023-01-25T10:25:35.563Z,99.90
2023-01-25T10:28:25.731Z,94.20
2023-01-25T10:30:59.505Z,99.90
2023-01-25T10:33:29.554Z,99.90
2023-01-25T10:36:03.331Z,99.90
2023-01-25T10:38:36.445Z,99.90
2023-01-25T10:41:09.379Z,99.90
2023-01-25T10:43:37.915Z,99.90
2023-01-25T10:46:17.955Z,99.90
2023-01-25T10:48:46.553Z,99.90
2023-01-25T10:51:30.710Z,99.90
2023-01-25T10:54:04.599Z,99.90
2023-01-25T10:56:35.697Z,99.90
2023-01-25T10:59:10.267Z,99.90
2023-01-25T11:01:39.126Z,99.90
2023-01-25T11:04:35.104Z,99.90
2023-01-25T11:07:06.581Z,50.10
2023-01-25T11:09:37.980Z,1.00
2023-01-25T11:12:19.509Z,1.00
2023-01-25T11:14:50.960Z,3.40
2023-01-25T11:17:25.757Z,1.00
2023-01-25T11:20:17.323Z,1.00
2023-01-25T11:22:55.425Z,1.00
2023-01-25T11:25:29.718Z,1.00
2023-01-25T11:28:18.662Z,1.00
2023-01-25T11:30:48.308Z,1.00
2023-01-25T11:33:18.917Z,1.00
2023-01-25T11:36:02.757Z,1.00
2023-01-25T11:38:32.898Z,1.00
2023-01-25T11:41:12.276Z,1.00
2023-01-25T11:44:00.523Z,1.00
2023-01-25T11:46:40.515Z,1.00
2023-01-25T11:49:33.613Z,1.00
2023-01-25T11:52:12.665Z,21.40
2023-01-25T11:54:50.320Z,1.00
2023-01-25T11:57:39.981Z,5.20
2023-01-25T12:00:39.439Z,10.80
2023-01-25T12:03:46.917Z,1.00
2023-01-25T12:06:18.609Z,1.00
2023-01-25T12:09:16.977Z,1.00
2023-01-25T12:11:59.985Z,1.00
2023-01-25T12:14:41.179Z,1.00
2023-01-25T12:23:19.218Z,1.00
2023-01-25T12:25:57.700Z,1.00
2023-01-25T12:28:35.218Z,1.00
2023-01-25T12:31:09.930Z,1.00
2023-01-25T12:33:44.382Z,1.00
2023-01-25T12:36:16.240Z,1.00
2023-01-25T12:38:51.702Z,1.00
2023-01-25T12:41:29.508Z,1.00
2023-01-25T12:44:07.459Z,1.00
2023-01-25T12:46:42.628Z,1.00
2023-01-25T12:49:22.235Z,1.00
2023-01-25T12:51:54.295Z,1.00
2023-01-25T12:54:29.376Z,1.00
2023-01-25T12:57:07.896Z,1.00
2023-01-25T12:59:46.640Z,1.00
2023-01-25T13:02:44.459Z,1.00
2023-01-25T13:05:24.322Z,1.00
2023-01-25T13:08:02.717Z,99.90
2023-01-25T13:10:35.129Z,99.90
2023-01-25T13:13:18.098Z,99.90
2023-01-25T13:15:48.271Z,99.90
2023-01-25T13:18:41.976Z,99.90
2023-01-25T13:21:13.900Z,99.90
2023-01-25T13:23:47.455Z,99.90
2023-01-25T13:26:38.440Z,99.90
2023-01-25T13:29:47.272Z,99.90
2023-01-25T13:33:07.698Z,99.90
2023-01-25T13:35:45.579Z,99.90
2023-01-25T13:38:33.365Z,99.90
2023-01-25T13:41:40.178Z,99.90
2023-01-25T13:44:28.660Z,99.90
2023-01-25T13:46:58.482Z,99.90
2023-01-25T13:49:35.811Z,99.90
2023-01-25T13:52:06.798Z,99.90
2023-01-25T13:54:43.527Z,99.90
2023-01-25T13:57:15.248Z,99.90
2023-01-25T13:59:43.870Z,99.90
2023-01-25T14:02:17.598Z,99.90
2023-01-25T14:04:47.689Z,99.90
2023-01-25T14:07:20.643Z,99.90
2023-01-25T14:09:49.986Z,99.90
2023-01-25T14:12:37.831Z,99.90
2023-01-25T14:15:19.094Z,99.90
2023-01-25T14:17:48.158Z,99.90
2023-01-25T14:20:21.263Z,99.90
2023-01-25T14:22:52.295Z,99.90
2023-01-25T14:25:25.636Z,99.90
2023-01-25T14:27:56.204Z,99.90
2023-01-25T14:30:27.011Z,99.90
2023-01-25T14:46:03.449Z,99.90
2023-01-25T14:48:38.171Z,99.90
2023-01-25T14:51:13.476Z,99.90
2023-01-25T14:53:44.399Z,99.90
2023-01-25T14:56:32.208Z,99.90
2023-01-25T14:59:01.342Z,99.90
2023-01-25T15:01:34.242Z,99.90
2023-01-25T15:04:04.817Z,99.90
2023-01-25T15:06:33.415Z,99.90
2023-01-25T15:09:02.018Z,99.90
2023-01-25T15:11:45.567Z,99.90
2023-01-25T15:14:22.327Z,99.90
2023-01-25T15:16:50.916Z,99.90
2023-01-25T15:19:25.781Z,99.90
2023-01-25T15:21:56.679Z,99.90
2023-01-25T15:24:25.881Z,99.90
2023-01-25T15:26:56.242Z,99.90
2023-01-25T15:29:27.637Z,99.90
2023-01-25T15:31:57.272Z,99.90
2023-01-25T15:34:32.569Z,99.90
2023-01-25T15:37:01.219Z,99.90
2023-01-25T15:39:30.094Z,99.90
2023-01-25T15:41:58.734Z,99.90
2023-01-25T15:44:27.325Z,99.90
2023-01-25T15:46:56.476Z,99.90
2023-01-25T15:49:28.902Z,99.90
2023-01-25T15:51:58.005Z,99.90
2023-01-25T15:54:26.651Z,99.90
2023-01-25T15:56:59.258Z,99.90
2023-01-25T15:59:27.904Z,99.90
2023-01-25T16:01:56.501Z,99.90
2023-01-25T16:04:26.400Z,99.90
2023-01-25T16:36:05.842Z,99.90
2023-01-25T16:38:35.492Z,99.90
2023-01-25T16:41:04.086Z,99.90
2023-01-25T16:43:42.478Z,99.90
2023-01-25T16:46:17.535Z,99.90
2023-01-25T16:48:47.201Z,99.90
2023-01-25T16:51:22.110Z,99.90
2023-01-25T16:53:51.903Z,99.90
2023-01-25T16:56:24.860Z,99.90
2023-01-25T16:58:54.802Z,99.90
2023-01-25T17:01:24.894Z,99.90
2023-01-25T17:03:54.311Z,99.90
2023-01-25T17:06:26.739Z,99.90
2023-01-25T17:08:58.873Z,99.90
2023-01-25T17:11:27.897Z,99.90
2023-01-25T17:14:00.823Z,99.90
2023-01-25T17:16:30.942Z,99.90
2023-01-25T17:19:02.383Z,99.90
2023-01-25T17:21:32.875Z,99.90
2023-01-25T17:24:02.785Z,99.90
2023-01-25T17:26:32.425Z,99.90
2023-01-25T17:29:02.948Z,99.90
2023-01-25T17:31:33.970Z,99.90
2023-01-25T17:34:04.796Z,99.90
2023-01-25T17:36:34.950Z,99.90
2023-01-25T17:39:05.150Z,99.90
2023-01-25T17:41:34.011Z,99.90
2023-01-25T17:44:02.717Z,99.90
2023-01-25T17:46:34.666Z,99.90
2023-01-25T17:49:05.152Z,99.90
2023-01-25T17:51:36.638Z,99.90
2023-01-25T17:54:09.117Z,1.00
2023-01-25T17:56:39.563Z,1.00
2023-01-25T17:59:11.859Z,1.00
2023-01-25T18:01:42.956Z,1.00
2023-01-25T18:04:13.376Z,1.00
2023-01-25T18:06:43.473Z,1.00
2023-01-25T18:09:12.128Z,1.00
2023-01-25T18:11:41.586Z,1.00
2023-01-25T18:14:13.114Z,1.00
2023-01-25T18:16:42.637Z,1.00
2023-01-25T18:19:11.699Z,1.00
2023-01-25T18:21:43.456Z,1.00
2023-01-25T18:24:26.380Z,1.00
2023-01-25T18:27:01.406Z,1.00
2023-01-25T18:29:40.735Z,1.00
2023-01-25T18:32:09.363Z,1.00
2023-01-25T18:34:38.022Z,1.00
2023-01-25T18:37:17.925Z,1.00
2023-01-25T18:39:52.487Z,1.00
2023-01-25T18:42:22.604Z,1.00
2023-01-25T18:44:51.418Z,1.00
2023-01-25T18:47:21.547Z,1.00
2023-01-25T18:49:51.282Z,99.90
2023-01-25T18:52:23.362Z,99.90
2023-01-25T18:54:52.378Z,99.90
2023-01-25T18:57:21.361Z,99.90
2023-01-25T18:59:50.001Z,99.90
2023-01-25T19:02:19.439Z,99.90
2023-01-25T19:04:48.022Z,99.90
2023-01-25T19:07:16.658Z,99.90
2023-01-25T19:09:48.058Z,99.90
2023-01-25T19:12:16.672Z,99.90
2023-01-25T19:14:45.267Z,96.70
2023-01-25T19:17:13.820Z,63.10
2023-01-25T19:19:44.205Z,33.20
2023-01-25T19:22:12.775Z,23.90
2023-01-25T19:24:41.384Z,1.00
2023-01-25T19:27:11.339Z,1.00
2023-01-25T19:29:40.009Z,1.00
2023-01-25T19:32:10.888Z,1.00
2023-01-25T19:34:40.058Z,1.00
2023-01-25T19:37:08.690Z,1.00
2023-01-25T19:39:37.521Z,1.00
2023-01-25T19:42:06.876Z,1.00
2023-01-25T19:44:36.846Z,1.00
2023-01-25T19:47:05.601Z,1.00
2023-01-25T19:49:34.284Z,1.00
2023-01-25T19:52:02.872Z,1.00
2023-01-25T19:54:31.494Z,1.00
2023-01-25T19:57:00.097Z,1.00
2023-01-25T19:59:29.139Z,1.00
2023-01-25T20:01:59.310Z,1.00
2023-01-25T20:04:27.956Z,1.00
2023-01-25T20:06:56.555Z,1.00
2023-01-25T20:09:28.705Z,1.00
2023-01-25T20:11:57.843Z,1.00
2023-01-25T20:14:26.574Z,1.00
2023-01-25T20:16:55.435Z,1.00
2023-01-25T20:19:25.549Z,1.00
2023-01-25T20:21:54.571Z,1.00
2023-01-25T20:24:23.572Z,1.00
2023-01-25T20:26:52.580Z,1.00
2023-01-25T20:29:22.372Z,1.00
2023-01-25T20:31:51.133Z,1.00
2023-01-25T20:34:21.999Z,1.00
2023-01-25T20:36:52.651Z,1.00
2023-01-25T20:39:23.042Z,1.00
2023-01-25T20:41:53.692Z,1.00
2023-01-25T20:44:22.692Z,1.00
2023-01-25T20:46:54.465Z,1.00
2023-01-25T20:49:23.421Z,1.00
2023-01-25T20:51:53.413Z,1.00
2023-01-25T20:54:22.122Z,1.00
2023-01-25T20:56:50.776Z,1.00
2023-01-25T20:59:19.528Z,1.00
2023-01-25T21:01:48.310Z,1.00
2023-01-25T21:04:17.137Z,1.00
2023-01-25T21:06:45.747Z,1.00
2023-01-25T21:09:15.786Z,1.00
2023-01-25T21:11:44.465Z,1.00
2023-01-25T21:14:13.027Z,1.00
2023-01-25T21:16:41.678Z,1.00
2023-01-25T21:19:10.398Z,1.00
2023-01-25T21:21:39.242Z,1.00
2023-01-25T21:24:08.510Z,1.00
2023-01-25T21:26:38.638Z,1.00
2023-01-25T21:29:08.190Z,1.00
2023-01-25T21:31:38.852Z,1.00
2023-01-25T21:34:09.298Z,1.00
2023-01-25T21:36:38.186Z,1.00
2023-01-25T21:39:06.818Z,1.00
2023-01-25T21:41:35.542Z,1.00
2023-01-25T21:44:25.617Z,1.00
2023-01-25T21:47:27.414Z,1.00
2023-01-25T21:50:00.186Z,1.00
2023-01-25T21:52:28.743Z,1.00
2023-01-25T21:54:57.281Z,1.00
2023-01-25T21:57:25.914Z,1.00
2023-01-25T21:59:55.869Z,1.00
2023-01-25T22:02:24.484Z,1.00
2023-01-25T22:04:53.132Z,1.00
2023-01-25T22:07:21.745Z,1.00
2023-01-25T22:09:50.463Z,1.00
2023-01-25T22:12:19.038Z,1.00
2023-01-25T22:14:47.656Z,1.00
2023-01-25T22:17:18.949Z,1.00
2023-01-25T22:19:47.483Z,1.00
2023-01-25T22:22:16.037Z,1.00
2023-01-25T22:24:44.533Z,1.00
2023-01-25T22:27:42.403Z,1.00
2023-01-25T22:30:13.028Z,1.00
2023-01-25T22:32:43.120Z,1.00
2023-01-25T22:35:11.753Z,1.00
2023-01-25T22:37:40.305Z,1.00
2023-01-25T22:40:10.613Z,1.00
2023-01-25T22:42:39.403Z,1.00
2023-01-25T23:10:10.776Z,1.00
2023-01-25T23:13:01.215Z,1.00
2023-01-25T23:15:29.848Z,1.00
2023-01-25T23:18:17.991Z,1.00
2023-01-25T23:20:46.681Z,1.00
2023-01-25T23:23:15.246Z,1.00
2023-01-25T23:25:47.898Z,1.00
2023-01-25T23:28:16.524Z,1.00
2023-01-25T23:30:45.139Z,1.00
2023-01-25T23:33:13.957Z,1.00
2023-01-25T23:35:42.705Z,1.00
2023-01-25T23:38:15.148Z,1.00
2023-01-25T23:40:45.220Z,1.00
2023-01-25T23:43:13.755Z,1.00
2023-01-25T23:45:44.614Z,1.00
2023-01-25T23:48:13.195Z,1.00
2023-01-25T23:50:41.862Z,1.00
2023-01-25T23:53:10.460Z,1.00
2023-01-25T23:55:39.073Z,37.30
2023-01-25T23:58:09.005Z,92.50
